sensor_id;sensor_type;location;lat;lon;timestamp;temperature;humidity
23713;DHT22;12035;49.978;8.298;2023-01-29T00:03:40;5.00;58.00
23713;DHT22;12035;49.978;8.298;2023-01-29T00:08:37;4.90;58.00
23713;DHT22;12035;49.978;8.298;2023-01-29T00:13:35;4.90;58.10
23713;DHT22;12035;49.978;8.298;2023-01-29T00:18:37;4.90;58.20
23713;DHT22;12035;49.978;8.298;2023-01-29T00:23:34;5.00;58.10
23713;DHT22;12035;49.978;8.298;2023-01-29T00:28:32;5.00;58.20
23713;DHT22;12035;49.978;8.298;2023-01-29T00:33:29;5.00;58.10
23713;DHT22;12035;49.978;8.298;2023-01-29T00:38:28;5.00;58.10
23713;DHT22;12035;49.978;8.298;2023-01-29T00:43:26;5.00;58.00
23713;DHT22;12035;49.978;8.298;2023-01-29T00:48:41;4.90;57.80
23713;DHT22;12035;49.978;8.298;2023-01-29T00:53:39;4.90;57.90
23713;DHT22;12035;49.978;8.298;2023-01-29T00:58:36;4.80;57.70
23713;DHT22;12035;49.978;8.298;2023-01-29T01:03:34;4.80;57.70
23713;DHT22;12035;49.978;8.298;2023-01-29T01:08:36;4.60;57.60
23713;DHT22;12035;49.978;8.298;2023-01-29T01:13:52;4.50;57.70
23713;DHT22;12035;49.978;8.298;2023-01-29T01:18:56;4.50;57.90
23713;DHT22;12035;49.978;8.298;2023-01-29T01:23:53;4.40;57.70
23713;DHT22;12035;49.978;8.298;2023-01-29T01:28:53;4.30;57.90
23713;DHT22;12035;49.978;8.298;2023-01-29T01:33:50;4.30;57.90
23713;DHT22;12035;49.978;8.298;2023-01-29T01:38:48;4.20;57.90
23713;DHT22;12035;49.978;8.298;2023-01-29T01:43:47;4.20;57.90
23713;DHT22;12035;49.978;8.298;2023-01-29T01:48:50;4.10;57.90
23713;DHT22;12035;49.978;8.298;2023-01-29T01:53:52;4.10;58.10
23713;DHT22;12035;49.978;8.298;2023-01-29T01:58:55;4.00;58.20
23713;DHT22;12035;49.978;8.298;2023-01-29T02:03:57;4.00;58.30
23713;DHT22;12035;49.978;8.298;2023-01-29T02:09:19;4.00;58.30
23713;DHT22;12035;49.978;8.298;2023-01-29T02:14:30;4.00;58.40
23713;DHT22;12035;49.978;8.298;2023-01-29T02:19:41;4.10;58.70
23713;DHT22;12035;49.978;8.298;2023-01-29T02:25:02;4.10;58.60
23713;DHT22;12035;49.978;8.298;2023-01-29T02:30:20;4.10;58.50
23713;DHT22;12035;49.978;8.298;2023-01-29T02:35:27;4.20;58.70
23713;DHT22;12035;49.978;8.298;2023-01-29T02:40:30;4.20;58.60
23713;DHT22;12035;49.978;8.298;2023-01-29T02:45:38;4.20;58.50
23713;DHT22;12035;49.978;8.298;2023-01-29T02:50:42;4.20;58.40
23713;DHT22;12035;49.978;8.298;2023-01-29T02:55:43;4.20;58.50
23713;DHT22;12035;49.978;8.298;2023-01-29T03:00:46;4.20;58.70
23713;DHT22;12035;49.978;8.298;2023-01-29T03:05:50;4.30;58.90
23713;DHT22;12035;49.978;8.298;2023-01-29T03:10:53;4.30;58.90
23713;DHT22;12035;49.978;8.298;2023-01-29T03:16:00;4.40;59.00
23713;DHT22;12035;49.978;8.298;2023-01-29T03:21:03;4.40;58.90
23713;DHT22;12035;49.978;8.298;2023-01-29T03:26:22;4.50;59.00
23713;DHT22;12035;49.978;8.298;2023-01-29T03:31:40;4.50;58.90
23713;DHT22;12035;49.978;8.298;2023-01-29T03:36:57;4.50;58.80
23713;DHT22;12035;49.978;8.298;2023-01-29T03:42:01;4.60;58.80
23713;DHT22;12035;49.978;8.298;2023-01-29T03:47:10;4.60;58.80
23713;DHT22;12035;49.978;8.298;2023-01-29T03:52:15;4.60;58.70
23713;DHT22;12035;49.978;8.298;2023-01-29T03:57:19;4.60;58.50
23713;DHT22;12035;49.978;8.298;2023-01-29T04:02:24;4.60;58.60
23713;DHT22;12035;49.978;8.298;2023-01-29T04:07:24;4.50;58.80
23713;DHT22;12035;49.978;8.298;2023-01-29T04:12:25;4.50;58.80
23713;DHT22;12035;49.978;8.298;2023-01-29T04:17:29;4.40;58.70
23713;DHT22;12035;49.978;8.298;2023-01-29T04:22:31;4.40;58.80
23713;DHT22;12035;49.978;8.298;2023-01-29T04:27:38;4.40;58.70
23713;DHT22;12035;49.978;8.298;2023-01-29T04:32:51;4.40;58.70
23713;DHT22;12035;49.978;8.298;2023-01-29T04:38:02;4.50;58.70
23713;DHT22;12035;49.978;8.298;2023-01-29T04:43:08;4.40;58.70
23713;DHT22;12035;49.978;8.298;2023-01-29T04:48:15;4.40;58.70
23713;DHT22;12035;49.978;8.298;2023-01-29T04:53:19;4.30;58.70
23713;DHT22;12035;49.978;8.298;2023-01-29T04:58:24;4.30;59.30
23713;DHT22;12035;49.978;8.298;2023-01-29T05:03:25;4.40;59.00
23713;DHT22;12035;49.978;8.298;2023-01-29T05:08:24;4.40;59.00
23713;DHT22;12035;49.978;8.298;2023-01-29T05:13:24;4.40;59.00
23713;DHT22;12035;49.978;8.298;2023-01-29T05:18:23;4.40;59.00
23713;DHT22;12035;49.978;8.298;2023-01-29T05:23:21;4.40;59.00
23713;DHT22;12035;49.978;8.298;2023-01-29T05:28:19;4.30;58.90
23713;DHT22;12035;49.978;8.298;2023-01-29T05:33:18;4.30;59.00
23713;DHT22;12035;49.978;8.298;2023-01-29T05:38:18;4.30;59.00
23713;DHT22;12035;49.978;8.298;2023-01-29T05:43:18;4.30;59.00
23713;DHT22;12035;49.978;8.298;2023-01-29T05:48:16;4.30;58.90
23713;DHT22;12035;49.978;8.298;2023-01-29T05:53:13;4.30;58.90
23713;DHT22;12035;49.978;8.298;2023-01-29T05:58:11;4.30;58.90
23713;DHT22;12035;49.978;8.298;2023-01-29T06:03:08;4.40;58.90
23713;DHT22;12035;49.978;8.298;2023-01-29T06:08:07;4.40;59.00
23713;DHT22;12035;49.978;8.298;2023-01-29T06:13:04;4.30;58.80
23713;DHT22;12035;49.978;8.298;2023-01-29T06:18:03;4.40;58.90
23713;DHT22;12035;49.978;8.298;2023-01-29T06:23:00;4.30;59.00
23713;DHT22;12035;49.978;8.298;2023-01-29T06:27:57;4.20;59.00
23713;DHT22;12035;49.978;8.298;2023-01-29T06:32:55;4.30;59.10
23713;DHT22;12035;49.978;8.298;2023-01-29T06:37:55;4.30;59.10
23713;DHT22;12035;49.978;8.298;2023-01-29T06:42:52;4.30;58.90
23713;DHT22;12035;49.978;8.298;2023-01-29T06:47:49;4.30;58.90
23713;DHT22;12035;49.978;8.298;2023-01-29T06:52:47;4.20;59.00
23713;DHT22;12035;49.978;8.298;2023-01-29T06:57:45;4.20;59.10
23713;DHT22;12035;49.978;8.298;2023-01-29T07:02:42;4.10;59.10
23713;DHT22;12035;49.978;8.298;2023-01-29T07:07:40;4.10;59.10
23713;DHT22;12035;49.978;8.298;2023-01-29T07:12:37;4.20;59.20
23713;DHT22;12035;49.978;8.298;2023-01-29T07:17:37;4.20;59.20
23713;DHT22;12035;49.978;8.298;2023-01-29T07:22:34;4.20;59.30
23713;DHT22;12035;49.978;8.298;2023-01-29T07:27:31;4.20;59.20
23713;DHT22;12035;49.978;8.298;2023-01-29T07:32:29;4.20;59.30
23713;DHT22;12035;49.978;8.298;2023-01-29T07:37:28;4.30;59.40
23713;DHT22;12035;49.978;8.298;2023-01-29T07:42:25;4.20;59.50
23713;DHT22;12035;49.978;8.298;2023-01-29T07:47:22;4.30;59.50
23713;DHT22;12035;49.978;8.298;2023-01-29T07:52:20;4.30;59.50
23713;DHT22;12035;49.978;8.298;2023-01-29T07:57:19;4.30;59.60
23713;DHT22;12035;49.978;8.298;2023-01-29T08:02:16;4.30;59.50
23713;DHT22;12035;49.978;8.298;2023-01-29T08:07:13;4.40;59.40
23713;DHT22;12035;49.978;8.298;2023-01-29T08:12:10;4.40;59.10
23713;DHT22;12035;49.978;8.298;2023-01-29T08:17:08;4.40;58.90
23713;DHT22;12035;49.978;8.298;2023-01-29T08:22:05;4.30;58.80
23713;DHT22;12035;49.978;8.298;2023-01-29T08:27:02;4.20;58.90
23713;DHT22;12035;49.978;8.298;2023-01-29T08:31:59;4.30;59.00
23713;DHT22;12035;49.978;8.298;2023-01-29T08:36:58;4.30;58.90
23713;DHT22;12035;49.978;8.298;2023-01-29T08:41:55;4.30;58.80
23713;DHT22;12035;49.978;8.298;2023-01-29T08:46:52;4.30;58.80
23713;DHT22;12035;49.978;8.298;2023-01-29T08:51:49;4.40;58.90
23713;DHT22;12035;49.978;8.298;2023-01-29T08:56:48;4.40;59.50
23713;DHT22;12035;49.978;8.298;2023-01-29T09:01:45;4.50;58.80
23713;DHT22;12035;49.978;8.298;2023-01-29T09:06:42;4.50;58.80
23713;DHT22;12035;49.978;8.298;2023-01-29T09:11:39;4.50;58.60
23713;DHT22;12035;49.978;8.298;2023-01-29T09:16:38;4.60;58.50
23713;DHT22;12035;49.978;8.298;2023-01-29T09:21:35;4.60;59.10
23713;DHT22;12035;49.978;8.298;2023-01-29T09:26:33;4.60;58.50
23713;DHT22;12035;49.978;8.298;2023-01-29T09:31:30;4.60;58.50
23713;DHT22;12035;49.978;8.298;2023-01-29T09:36:28;4.60;58.40
23713;DHT22;12035;49.978;8.298;2023-01-29T09:41:36;4.70;58.40
23713;DHT22;12035;49.978;8.298;2023-01-29T09:46:42;4.60;58.10
23713;DHT22;12035;49.978;8.298;2023-01-29T09:51:45;4.60;58.80
23713;DHT22;12035;49.978;8.298;2023-01-29T09:56:45;4.60;58.20
23713;DHT22;12035;49.978;8.298;2023-01-29T10:01:52;4.70;58.30
23713;DHT22;12035;49.978;8.298;2023-01-29T10:07:10;4.60;58.10
23713;DHT22;12035;49.978;8.298;2023-01-29T10:12:26;4.60;58.10
23713;DHT22;12035;49.978;8.298;2023-01-29T10:17:42;4.70;58.10
23713;DHT22;12035;49.978;8.298;2023-01-29T10:23:01;4.70;58.20
23713;DHT22;12035;49.978;8.298;2023-01-29T10:28:04;4.70;58.30
23713;DHT22;12035;49.978;8.298;2023-01-29T10:33:17;4.80;58.70
23713;DHT22;12035;49.978;8.298;2023-01-29T10:38:32;4.80;58.40
23713;DHT22;12035;49.978;8.298;2023-01-29T10:43:40;4.80;58.10
23713;DHT22;12035;49.978;8.298;2023-01-29T10:48:59;4.80;58.20
23713;DHT22;12035;49.978;8.298;2023-01-29T10:54:13;4.80;57.90
23713;DHT22;12035;49.978;8.298;2023-01-29T10:59:45;4.80;58.00
23713;DHT22;12035;49.978;8.298;2023-01-29T11:04:47;4.90;58.10
23713;DHT22;12035;49.978;8.298;2023-01-29T11:09:52;5.00;58.50
23713;DHT22;12035;49.978;8.298;2023-01-29T11:14:54;5.10;58.50
23713;DHT22;12035;49.978;8.298;2023-01-29T11:19:54;5.30;58.30
23713;DHT22;12035;49.978;8.298;2023-01-29T11:30:30;5.50;58.10
23713;DHT22;12035;49.978;8.298;2023-01-29T11:35:28;5.60;57.50
23713;DHT22;12035;49.978;8.298;2023-01-29T11:40:34;5.70;57.60
23713;DHT22;12035;49.978;8.298;2023-01-29T11:45:37;5.70;57.40
23713;DHT22;12035;49.978;8.298;2023-01-29T11:50:38;5.70;57.30
23713;DHT22;12035;49.978;8.298;2023-01-29T11:55:35;5.70;57.30
23713;DHT22;12035;49.978;8.298;2023-01-29T12:00:39;5.80;57.30
23713;DHT22;12035;49.978;8.298;2023-01-29T12:05:39;5.70;57.00
23713;DHT22;12035;49.978;8.298;2023-01-29T12:10:38;5.70;57.00
23713;DHT22;12035;49.978;8.298;2023-01-29T12:15:39;5.60;56.90
23713;DHT22;12035;49.978;8.298;2023-01-29T12:20:40;5.60;57.00
23713;DHT22;12035;49.978;8.298;2023-01-29T12:25:43;5.50;57.00
23713;DHT22;12035;49.978;8.298;2023-01-29T12:30:53;5.50;57.10
23713;DHT22;12035;49.978;8.298;2023-01-29T12:36:06;5.50;56.80
23713;DHT22;12035;49.978;8.298;2023-01-29T12:41:10;5.40;56.80
23713;DHT22;12035;49.978;8.298;2023-01-29T12:46:21;5.30;57.20
23713;DHT22;12035;49.978;8.298;2023-01-29T12:51:22;5.30;57.20
23713;DHT22;12035;49.978;8.298;2023-01-29T12:56:26;5.40;57.50
23713;DHT22;12035;49.978;8.298;2023-01-29T13:01:30;5.50;57.60
23713;DHT22;12035;49.978;8.298;2023-01-29T13:06:34;5.60;57.50
23713;DHT22;12035;49.978;8.298;2023-01-29T13:11:39;5.70;57.40
23713;DHT22;12035;49.978;8.298;2023-01-29T13:16:43;5.70;57.30
23713;DHT22;12035;49.978;8.298;2023-01-29T13:21:43;5.80;57.30
23713;DHT22;12035;49.978;8.298;2023-01-29T13:26:43;5.80;57.30
23713;DHT22;12035;49.978;8.298;2023-01-29T13:31:46;5.80;57.10
23713;DHT22;12035;49.978;8.298;2023-01-29T13:36:46;5.80;57.10
23713;DHT22;12035;49.978;8.298;2023-01-29T13:41:44;5.80;57.20
23713;DHT22;12035;49.978;8.298;2023-01-29T13:46:48;5.80;57.20
23713;DHT22;12035;49.978;8.298;2023-01-29T13:51:47;5.80;57.00
23713;DHT22;12035;49.978;8.298;2023-01-29T13:56:56;5.70;57.20
23713;DHT22;12035;49.978;8.298;2023-01-29T14:02:20;5.70;57.20
23713;DHT22;12035;49.978;8.298;2023-01-29T14:07:48;5.70;57.40
23713;DHT22;12035;49.978;8.298;2023-01-29T14:12:48;5.70;57.30
23713;DHT22;12035;49.978;8.298;2023-01-29T14:23:24;5.70;57.30
23713;DHT22;12035;49.978;8.298;2023-01-29T14:28:28;5.60;57.50
23713;DHT22;12035;49.978;8.298;2023-01-29T14:33:34;5.70;57.60
23713;DHT22;12035;49.978;8.298;2023-01-29T14:38:33;5.70;57.50
23713;DHT22;12035;49.978;8.298;2023-01-29T14:43:30;5.70;57.40
23713;DHT22;12035;49.978;8.298;2023-01-29T14:48:38;5.70;57.50
23713;DHT22;12035;49.978;8.298;2023-01-29T14:53:48;5.70;57.70
23713;DHT22;12035;49.978;8.298;2023-01-29T14:58:53;5.60;57.70
23713;DHT22;12035;49.978;8.298;2023-01-29T15:03:58;5.60;57.80
23713;DHT22;12035;49.978;8.298;2023-01-29T15:09:04;5.60;58.00
23713;DHT22;12035;49.978;8.298;2023-01-29T15:14:20;5.60;58.60
23713;DHT22;12035;49.978;8.298;2023-01-29T15:19:25;5.60;57.90
23713;DHT22;12035;49.978;8.298;2023-01-29T15:24:24;5.50;58.00
23713;DHT22;12035;49.978;8.298;2023-01-29T15:29:22;5.50;58.10
23713;DHT22;12035;49.978;8.298;2023-01-29T15:34:22;5.50;58.10
23713;DHT22;12035;49.978;8.298;2023-01-29T15:39:21;5.40;58.10
23713;DHT22;12035;49.978;8.298;2023-01-29T15:44:22;5.40;58.10
23713;DHT22;12035;49.978;8.298;2023-01-29T15:49:28;5.30;58.10
23713;DHT22;12035;49.978;8.298;2023-01-29T15:54:29;5.30;58.20
23713;DHT22;12035;49.978;8.298;2023-01-29T15:59:31;5.30;58.90
23713;DHT22;12035;49.978;8.298;2023-01-29T16:04:41;5.20;58.90
23713;DHT22;12035;49.978;8.298;2023-01-29T16:09:38;5.10;58.40
23713;DHT22;12035;49.978;8.298;2023-01-29T16:14:36;5.10;58.50
23713;DHT22;12035;49.978;8.298;2023-01-29T16:19:33;5.00;58.50
23713;DHT22;12035;49.978;8.298;2023-01-29T16:24:34;5.00;58.70
23713;DHT22;12035;49.978;8.298;2023-01-29T16:29:33;4.90;58.80
23713;DHT22;12035;49.978;8.298;2023-01-29T16:34:34;4.90;58.90
23713;DHT22;12035;49.978;8.298;2023-01-29T16:39:37;4.90;59.00
23713;DHT22;12035;49.978;8.298;2023-01-29T16:44:35;4.80;59.20
23713;DHT22;12035;49.978;8.298;2023-01-29T16:49:47;4.80;59.20
23713;DHT22;12035;49.978;8.298;2023-01-29T16:54:47;4.80;59.40
23713;DHT22;12035;49.978;8.298;2023-01-29T16:59:44;4.70;59.50
23713;DHT22;12035;49.978;8.298;2023-01-29T17:04:42;4.70;59.50
23713;DHT22;12035;49.978;8.298;2023-01-29T17:09:41;4.70;59.50
23713;DHT22;12035;49.978;8.298;2023-01-29T17:14:51;4.70;59.60
23713;DHT22;12035;49.978;8.298;2023-01-29T17:19:48;4.60;59.70
23713;DHT22;12035;49.978;8.298;2023-01-29T17:24:45;4.60;59.70
23713;DHT22;12035;49.978;8.298;2023-01-29T17:29:47;4.60;59.70
23713;DHT22;12035;49.978;8.298;2023-01-29T17:34:45;4.60;59.80
23713;DHT22;12035;49.978;8.298;2023-01-29T17:39:42;4.50;59.90
23713;DHT22;12035;49.978;8.298;2023-01-29T17:44:40;4.40;59.90
23713;DHT22;12035;49.978;8.298;2023-01-29T17:49:39;4.40;60.00
23713;DHT22;12035;49.978;8.298;2023-01-29T17:54:36;4.40;60.20
23713;DHT22;12035;49.978;8.298;2023-01-29T17:59:33;4.30;60.20
23713;DHT22;12035;49.978;8.298;2023-01-29T18:04:31;4.30;60.40
23713;DHT22;12035;49.978;8.298;2023-01-29T18:09:29;4.20;60.40
23713;DHT22;12035;49.978;8.298;2023-01-29T18:14:27;4.20;60.70
23713;DHT22;12035;49.978;8.298;2023-01-29T18:19:24;4.10;60.70
23713;DHT22;12035;49.978;8.298;2023-01-29T18:24:22;4.10;60.90
23713;DHT22;12035;49.978;8.298;2023-01-29T18:29:22;4.10;61.00
23713;DHT22;12035;49.978;8.298;2023-01-29T18:34:23;4.10;61.10
23713;DHT22;12035;49.978;8.298;2023-01-29T18:39:21;4.10;61.00
23713;DHT22;12035;49.978;8.298;2023-01-29T18:44:19;4.10;61.10
23713;DHT22;12035;49.978;8.298;2023-01-29T18:49:17;4.00;61.30
23713;DHT22;12035;49.978;8.298;2023-01-29T18:54:14;4.00;61.80
23713;DHT22;12035;49.978;8.298;2023-01-29T18:59:12;3.90;61.20
23713;DHT22;12035;49.978;8.298;2023-01-29T19:04:11;3.90;61.40
23713;DHT22;12035;49.978;8.298;2023-01-29T19:09:10;3.80;61.50
23713;DHT22;12035;49.978;8.298;2023-01-29T19:14:08;3.80;61.80
23713;DHT22;12035;49.978;8.298;2023-01-29T19:19:05;3.70;61.80
23713;DHT22;12035;49.978;8.298;2023-01-29T19:24:05;3.70;62.10
23713;DHT22;12035;49.978;8.298;2023-01-29T19:29:05;3.60;62.20
23713;DHT22;12035;49.978;8.298;2023-01-29T19:34:03;3.60;62.40
23713;DHT22;12035;49.978;8.298;2023-01-29T19:39:02;3.50;62.40
23713;DHT22;12035;49.978;8.298;2023-01-29T19:43:59;3.50;62.60
23713;DHT22;12035;49.978;8.298;2023-01-29T19:48:57;3.50;62.70
23713;DHT22;12035;49.978;8.298;2023-01-29T19:53:54;3.50;62.70
23713;DHT22;12035;49.978;8.298;2023-01-29T19:58:51;3.50;62.80
23713;DHT22;12035;49.978;8.298;2023-01-29T20:03:52;3.50;62.80
23713;DHT22;12035;49.978;8.298;2023-01-29T20:08:51;3.50;62.90
23713;DHT22;12035;49.978;8.298;2023-01-29T20:13:49;3.50;63.00
23713;DHT22;12035;49.978;8.298;2023-01-29T20:18:47;3.50;63.10
23713;DHT22;12035;49.978;8.298;2023-01-29T20:23:45;3.50;63.00
23713;DHT22;12035;49.978;8.298;2023-01-29T20:28:44;3.50;63.00
23713;DHT22;12035;49.978;8.298;2023-01-29T20:33:42;3.40;63.20
23713;DHT22;12035;49.978;8.298;2023-01-29T20:38:40;3.40;63.40
23713;DHT22;12035;49.978;8.298;2023-01-29T20:43:37;3.40;63.40
23713;DHT22;12035;49.978;8.298;2023-01-29T20:48:36;3.40;63.40
23713;DHT22;12035;49.978;8.298;2023-01-29T20:53:44;3.40;63.40
23713;DHT22;12035;49.978;8.298;2023-01-29T20:58:42;3.40;63.50
23713;DHT22;12035;49.978;8.298;2023-01-29T21:03:42;3.50;63.50
23713;DHT22;12035;49.978;8.298;2023-01-29T21:08:39;3.50;63.60
23713;DHT22;12035;49.978;8.298;2023-01-29T21:13:37;3.50;63.70
23713;DHT22;12035;49.978;8.298;2023-01-29T21:18:34;3.50;63.70
23713;DHT22;12035;49.978;8.298;2023-01-29T21:23:33;3.60;63.70
23713;DHT22;12035;49.978;8.298;2023-01-29T21:28:30;3.60;63.70
23713;DHT22;12035;49.978;8.298;2023-01-29T21:33:29;3.60;63.70
23713;DHT22;12035;49.978;8.298;2023-01-29T21:38:27;3.60;63.70
23713;DHT22;12035;49.978;8.298;2023-01-29T21:43:25;3.60;63.90
23713;DHT22;12035;49.978;8.298;2023-01-29T21:48:22;3.60;64.00
23713;DHT22;12035;49.978;8.298;2023-01-29T21:53:20;3.60;64.00
23713;DHT22;12035;49.978;8.298;2023-01-29T21:58:17;3.60;64.00
23713;DHT22;12035;49.978;8.298;2023-01-29T22:03:16;3.60;64.10
23713;DHT22;12035;49.978;8.298;2023-01-29T22:08:13;3.70;64.40
23713;DHT22;12035;49.978;8.298;2023-01-29T22:13:10;3.60;64.30
23713;DHT22;12035;49.978;8.298;2023-01-29T22:18:08;3.60;64.40
23713;DHT22;12035;49.978;8.298;2023-01-29T22:23:07;3.60;64.60
23713;DHT22;12035;49.978;8.298;2023-01-29T22:28:04;3.60;64.70
23713;DHT22;12035;49.978;8.298;2023-01-29T22:33:01;3.60;64.80
23713;DHT22;12035;49.978;8.298;2023-01-29T22:37:58;3.70;64.90
23713;DHT22;12035;49.978;8.298;2023-01-29T22:42:57;3.70;65.00
23713;DHT22;12035;49.978;8.298;2023-01-29T22:47:55;3.70;65.10
23713;DHT22;12035;49.978;8.298;2023-01-29T22:52:52;3.80;65.20
23713;DHT22;12035;49.978;8.298;2023-01-29T22:57:49;3.80;65.30
23713;DHT22;12035;49.978;8.298;2023-01-29T23:02:49;3.80;65.30
23713;DHT22;12035;49.978;8.298;2023-01-29T23:07:46;3.80;65.50
23713;DHT22;12035;49.978;8.298;2023-01-29T23:12:43;3.90;65.60
23713;DHT22;12035;49.978;8.298;2023-01-29T23:17:41;3.90;65.60
23713;DHT22;12035;49.978;8.298;2023-01-29T23:22:39;3.90;65.70
23713;DHT22;12035;49.978;8.298;2023-01-29T23:27:36;3.90;65.90
23713;DHT22;12035;49.978;8.298;2023-01-29T23:32:33;3.90;65.90
23713;DHT22;12035;49.978;8.298;2023-01-29T23:37:30;3.90;66.00
23713;DHT22;12035;49.978;8.298;2023-01-29T23:42:28;3.90;66.00
23713;DHT22;12035;49.978;8.298;2023-01-29T23:47:25;4.00;66.20
23713;DHT22;12035;49.978;8.298;2023-01-29T23:52:22;4.00;66.20
23713;DHT22;12035;49.978;8.298;2023-01-29T23:57:19;4.00;66.20
